Wetterdaten: Montag, 16.05.2011
Datum Zeit Temp. I. Temp. A. Boden 5 cm Feuchte A. Sonne Luftdruck Regen Wind
16.05.2011 00:01 22,1 C 8,4 C 10,6 C 90 % 0 % 1016 hPa 0,0 l/m 3,6 km/h (1 Bft)
16.05.2011 00:04 22,1 C 8,3 C 10,6 C 90 % 0 % 1016 hPa 0,0 l/m 1,0 km/h (0 Bft)
16.05.2011 00:07 22,1 C 8,3 C 10,5 C 90 % 0 % 1016 hPa 0,0 l/m 22,0 km/h (4 Bft)
16.05.2011 00:10 22,1 C 8,4 C 10,5 C 92 % 0 % 1016 hPa 0,3 l/m 12,9 km/h (3 Bft)
16.05.2011 00:13 22,1 C 8,3 C 10,5 C 92 % 0 % 1016 hPa 0,0 l/m 32,1 km/h (5 Bft)
16.05.2011 00:16 22,1 C 8,3 C 10,4 C 92 % 0 % 1016 hPa 0,3 l/m 32,1 km/h (5 Bft)
16.05.2011 00:19 22,1 C 8,2 C 10,3 C 93 % 0 % 1016 hPa 0,0 l/m 11,2 km/h (2 Bft)
16.05.2011 00:22 22,1 C 8,1 C 10,3 C 93 % 0 % 1016 hPa 0,3 l/m 3,6 km/h (1 Bft)
16.05.2011 00:25 22,1 C 8,1 C 10,3 C 93 % 0 % 1016 hPa 0,0 l/m 2,6 km/h (1 Bft)
16.05.2011 00:28 22,1 C 8,0 C 10,2 C 94 % 0 % 1015 hPa 0,0 l/m 1,7 km/h (1 Bft)
16.05.2011 00:31 22,1 C 7,9 C 10,2 C 94 % 0 % 1015 hPa 0,0 l/m 9,5 km/h (2 Bft)
16.05.2011 00:34 22,1 C 7,9 C 10,2 C 95 % 0 % 1015 hPa 0,0 l/m 5,1 km/h (1 Bft)
16.05.2011 00:37 22,1 C 7,8 C 10,2 C 95 % 0 % 1016 hPa 0,0 l/m 2,3 km/h (1 Bft)
16.05.2011 00:40 22,1 C 7,8 C 10,3 C 95 % 0 % 1016 hPa 0,0 l/m 3,7 km/h (1 Bft)
16.05.2011 00:43 22,1 C 7,8 C 10,2 C 95 % 0 % 1016 hPa 0,0 l/m 4,5 km/h (1 Bft)
16.05.2011 00:46 22,1 C 7,8 C 10,2 C 95 % 0 % 1016 hPa 0,0 l/m 6,5 km/h (2 Bft)
16.05.2011 00:49 22,0 C 7,8 C 10,3 C 95 % 0 % 1016 hPa 0,0 l/m 6,5 km/h (2 Bft)
16.05.2011 00:52 22,1 C 7,8 C 10,3 C 95 % 0 % 1016 hPa 0,0 l/m 3,2 km/h (1 Bft)
16.05.2011 00:55 22,0 C 7,8 C 10,3 C 95 % 0 % 1016 hPa 0,0 l/m 5,8 km/h (2 Bft)
16.05.2011 00:58 22,1 C 7,8 C 10,3 C 95 % 0 % 1016 hPa 0,0 l/m 4,3 km/h (1 Bft)
16.05.2011 01:01 22,1 C 7,8 C 10,3 C 95 % 0 % 1016 hPa 0,0 l/m 4,3 km/h (1 Bft)
16.05.2011 01:04 22,0 C 7,9 C 10,3 C 95 % 0 % 1016 hPa 0,0 l/m 5,3 km/h (1 Bft)
16.05.2011 01:07 22,0 C 7,9 C 10,3 C 95 % 0 % 1016 hPa 0,0 l/m 5,2 km/h (1 Bft)
16.05.2011 01:10 22,0 C 7,9 C 10,3 C 95 % 0 % 1016 hPa 0,0 l/m 1,0 km/h (0 Bft)
16.05.2011 01:13 22,0 C 7,8 C 10,2 C 95 % 0 % 1016 hPa 0,0 l/m 1,5 km/h (1 Bft)
16.05.2011 01:16 22,0 C 7,8 C 10,2 C 95 % 0 % 1016 hPa 0,0 l/m 1,5 km/h (1 Bft)
16.05.2011 01:19 22,0 C 7,8 C 10,3 C 95 % 0 % 1016 hPa 0,0 l/m 0,0 km/h (0 Bft)
16.05.2011 01:22 22,0 C 7,8 C 10,3 C 95 % 0 % 1016 hPa 0,0 l/m 0,0 km/h (0 Bft)
16.05.2011 01:25 22,0 C 7,8 C 10,3 C 95 % 0 % 1016 hPa 0,0 l/m 0,1 km/h (0 Bft)
16.05.2011 01:28 22,0 C 7,8 C 10,2 C 95 % 0 % 1016 hPa 0,0 l/m 0,0 km/h (0 Bft)
16.05.2011 01:31 22,0 C 7,8 C 10,1 C 95 % 0 % 1016 hPa 0,0 l/m 0,0 km/h (0 Bft)
16.05.2011 01:34 22,0 C 7,8 C 10,1 C 95 % 0 % 1016 hPa 0,0 l/m 0,0 km/h (0 Bft)
16.05.2011 01:37 22,0 C 7,8 C 10,1 C 95 % 0 % 1016 hPa 0,0 l/m 0,0 km/h (0 Bft)
16.05.2011 01:40 22,0 C 7,8 C 10,2 C 95 % 0 % 1016 hPa 0,0 l/m 0,0 km/h (0 Bft)
16.05.2011 01:43 22,0 C 7,9 C 10,2 C 94 % 0 % 1016 hPa 0,0 l/m 0,0 km/h (0 Bft)
16.05.2011 01:46 22,0 C 7,9 C 10,5 C 94 % 0 % 1016 hPa 0,0 l/m 0,0 km/h (0 Bft)
16.05.2011 01:49 22,0 C 7,9 C 10,5 C 94 % 0 % 1016 hPa 0,0 l/m 0,6 km/h (0 Bft)
16.05.2011 01:52 22,0 C 7,9 C 10,6 C 94 % 0 % 1016 hPa 0,0 l/m 4,0 km/h (1 Bft)
16.05.2011 01:55 22,0 C 7,9 C 10,5 C 95 % 0 % 1016 hPa 0,0 l/m 1,0 km/h (0 Bft)
16.05.2011 01:58 22,0 C 7,9 C 10,4 C 95 % 0 % 1016 hPa 0,0 l/m 1,0 km/h (0 Bft)
16.05.2011 02:01 22,0 C 7,9 C 10,4 C 95 % 0 % 1016 hPa 0,0 l/m 1,0 km/h (0 Bft)
16.05.2011 02:04 22,0 C 7,8 C 10,3 C 95 % 0 % 1016 hPa 0,0 l/m 2,6 km/h (1 Bft)
16.05.2011 02:07 22,0 C 7,7 C 10,3 C 95 % 0 % 1016 hPa 0,0 l/m 0,6 km/h (0 Bft)
16.05.2011 02:10 22,0 C 7,7 C 10,2 C 95 % 0 % 1016 hPa 0,0 l/m 3,0 km/h (1 Bft)
16.05.2011 02:13 22,0 C 7,7 C 10,2 C 95 % 0 % 1016 hPa 0,0 l/m 3,0 km/h (1 Bft)
16.05.2011 02:16 22,0 C 7,7 C 10,2 C 95 % 0 % 1016 hPa 0,0 l/m 0,4 km/h (0 Bft)
16.05.2011 02:19 22,0 C 7,7 C 10,2 C 96 % 0 % 1016 hPa 0,0 l/m 0,0 km/h (0 Bft)
16.05.2011 02:22 22,0 C 7,7 C 10,2 C 96 % 0 % 1016 hPa 0,0 l/m 0,4 km/h (0 Bft)
16.05.2011 02:25 22,0 C 7,7 C 10,2 C 96 % 0 % 1016 hPa 0,0 l/m 0,4 km/h (0 Bft)
16.05.2011 02:28 21,9 C 7,7 C 10,3 C 96 % 0 % 1016 hPa 0,0 l/m 0,0 km/h (0 Bft)
16.05.2011 02:31 21,9 C 7,7 C 10,3 C 96 % 0 % 1016 hPa 0,0 l/m 0,0 km/h (0 Bft)
16.05.2011 02:34 21,9 C 7,7 C 10,3 C 97 % 0 % 1016 hPa 0,0 l/m 0,0 km/h (0 Bft)
16.05.2011 02:37 21,9 C 7,7 C 10,3 C 97 % 0 % 1016 hPa 0,0 l/m 0,1 km/h (0 Bft)
16.05.2011 02:40 21,9 C 7,7 C 10,3 C 97 % 0 % 1016 hPa 0,0 l/m 0,1 km/h (0 Bft)
16.05.2011 02:43 21,9 C 7,7 C 10,3 C 97 % 0 % 1016 hPa 0,0 l/m 4,2 km/h (1 Bft)
16.05.2011 02:46 21,9 C 7,7 C 10,3 C 97 % 0 % 1016 hPa 0,0 l/m 1,5 km/h (1 Bft)
16.05.2011 02:49 21,9 C 7,7 C 10,2 C 97 % 0 % 1016 hPa 0,0 l/m 5,6 km/h (1 Bft)
16.05.2011 02:52 21,9 C 7,6 C 10,2 C 97 % 0 % 1016 hPa 0,0 l/m 5,7 km/h (1 Bft)
16.05.2011 02:55 21,9 C 7,6 C 10,2 C 97 % 0 % 1016 hPa 0,0 l/m 1,6 km/h (1 Bft)
16.05.2011 02:58 21,9 C 7,6 C 10,1 C 97 % 0 % 1016 hPa 0,0 l/m 3,5 km/h (1 Bft)
16.05.2011 03:01 21,9 C 7,6 C 10,1 C 97 % 0 % 1016 hPa 0,0 l/m 0,2 km/h (0 Bft)
16.05.2011 03:04 21,9 C 7,5 C 10,1 C 97 % 0 % 1016 hPa 0,0 l/m 0,0 km/h (0 Bft)
16.05.2011 03:07 21,9 C 7,6 C 10,1 C 97 % 0 % 1016 hPa 0,0 l/m 0,1 km/h (0 Bft)
16.05.2011 03:10 21,9 C 7,6 C 10,2 C 97 % 0 % 1016 hPa 0,0 l/m 0,0 km/h (0 Bft)
16.05.2011 03:13 21,9 C 7,6 C 10,2 C 97 % 0 % 1016 hPa 0,0 l/m 0,0 km/h (0 Bft)
16.05.2011 03:16 21,9 C 7,6 C 10,2 C 97 % 0 % 1016 hPa 0,0 l/m 0,0 km/h (0 Bft)
16.05.2011 03:19 21,9 C 7,6 C 10,2 C 97 % 0 % 1016 hPa 0,0 l/m 0,0 km/h (0 Bft)
16.05.2011 03:22 21,9 C 7,5 C 10,2 C 97 % 0 % 1016 hPa 0,0 l/m 0,0 km/h (0 Bft)
16.05.2011 03:25 21,9 C 7,5 C 10,2 C 97 % 0 % 1016 hPa 0,0 l/m 0,0 km/h (0 Bft)
16.05.2011 03:28 21,9 C 7,5 C 10,2 C 96 % 0 % 1016 hPa 0,0 l/m 0,0 km/h (0 Bft)
16.05.2011 03:31 21,9 C 7,4 C 9,9 C 96 % 0 % 1016 hPa 0,0 l/m 0,0 km/h (0 Bft)
16.05.2011 03:34 21,9 C 7,4 C 9,8 C 96 % 0 % 1016 hPa 0,0 l/m 0,0 km/h (0 Bft)
16.05.2011 03:37 21,9 C 7,3 C 9,8 C 96 % 0 % 1016 hPa 0,0 l/m 0,0 km/h (0 Bft)
16.05.2011 03:40 21,9 C 7,3 C 9,9 C 96 % 0 % 1016 hPa 0,0 l/m 0,0 km/h (0 Bft)
16.05.2011 03:43 21,9 C 7,3 C 10,0 C 96 % 0 % 1016 hPa 0,0 l/m 1,0 km/h (0 Bft)
16.05.2011 03:46 21,9 C 7,3 C 10,1 C 96 % 0 % 1016 hPa 0,0 l/m 0,0 km/h (0 Bft)
16.05.2011 03:49 21,8 C 7,3 C 10,1 C 96 % 0 % 1016 hPa 0,0 l/m 0,1 km/h (0 Bft)
16.05.2011 03:52 21,9 C 7,3 C 10,1 C 96 % 0 % 1016 hPa 0,0 l/m 0,0 km/h (0 Bft)
16.05.2011 03:55 21,8 C 7,3 C 10,1 C 96 % 0 % 1016 hPa 0,0 l/m 0,0 km/h (0 Bft)
16.05.2011 03:58 21,9 C 7,2 C 10,1 C 96 % 0 % 1016 hPa 0,0 l/m 0,3 km/h (0 Bft)
16.05.2011 04:01 21,9 C 7,3 C 10,1 C 96 % 0 % 1016 hPa 0,0 l/m 0,6 km/h (0 Bft)
16.05.2011 04:04 21,9 C 7,3 C 10,0 C 96 % 0 % 1016 hPa 0,0 l/m 5,4 km/h (1 Bft)
16.05.2011 04:07 21,9 C 7,3 C 10,0 C 96 % 0 % 1016 hPa 0,0 l/m 1,2 km/h (1 Bft)
16.05.2011 04:10 21,9 C 7,3 C 10,0 C 96 % 0 % 1016 hPa 0,0 l/m 0,2 km/h (0 Bft)
16.05.2011 04:13 21,9 C 7,2 C 10,0 C 96 % 0 % 1016 hPa 0,0 l/m 0,6 km/h (0 Bft)
16.05.2011 04:16 22,0 C 7,2 C 10,0 C 96 % 0 % 1016 hPa 0,0 l/m 1,1 km/h (1 Bft)
16.05.2011 04:19 22,0 C 7,1 C 9,9 C 96 % 0 % 1016 hPa 0,0 l/m 0,7 km/h (0 Bft)
16.05.2011 04:22 22,0 C 7,1 C 9,8 C 96 % 0 % 1016 hPa 0,0 l/m 0,3 km/h (0 Bft)
16.05.2011 04:25 22,0 C 7,0 C 9,8 C 97 % 0 % 1016 hPa 0,0 l/m 0,0 km/h (0 Bft)
16.05.2011 04:28 22,0 C 7,0 C 9,7 C 97 % 0 % 1016 hPa 0,0 l/m 0,0 km/h (0 Bft)
16.05.2011 04:31 22,0 C 6,9 C 9,7 C 97 % 0 % 1016 hPa 0,0 l/m 0,2 km/h (0 Bft)
16.05.2011 04:34 22,0 C 6,8 C 9,6 C 96 % 0 % 1016 hPa 0,0 l/m 0,0 km/h (0 Bft)
16.05.2011 04:37 22,0 C 6,8 C 9,7 C 96 % 0 % 1016 hPa 0,0 l/m 0,0 km/h (0 Bft)
16.05.2011 04:40 22,0 C 6,8 C 9,7 C 96 % 0 % 1016 hPa 0,0 l/m 0,2 km/h (0 Bft)
16.05.2011 04:43 22,1 C 6,8 C 9,7 C 96 % 0 % 1016 hPa 0,0 l/m 0,0 km/h (0 Bft)
16.05.2011 04:46 22,1 C 6,7 C 9,7 C 96 % 0 % 1016 hPa 0,0 l/m 0,3 km/h (0 Bft)
16.05.2011 04:49 22,1 C 6,7 C 9,7 C 96 % 0 % 1016 hPa 0,0 l/m 0,1 km/h (0 Bft)
16.05.2011 04:52 22,1 C 6,7 C 9,7 C 96 % 0 % 1016 hPa 0,0 l/m 0,4 km/h (0 Bft)
16.05.2011 04:55 22,1 C 6,6 C 9,8 C 96 % 0 % 1016 hPa 0,0 l/m 0,9 km/h (0 Bft)
16.05.2011 04:58 22,1 C 6,6 C 9,8 C 96 % 0 % 1016 hPa 0,0 l/m 0,6 km/h (0 Bft)
16.05.2011 05:01 22,1 C 6,6 C 9,8 C 96 % 0 % 1016 hPa 0,0 l/m 0,6 km/h (0 Bft)
16.05.2011 05:04 22,1 C 6,6 C 9,7 C 96 % 0 % 1016 hPa 0,0 l/m 1,0 km/h (0 Bft)
16.05.2011 05:07 22,2 C 6,7 C 9,6 C 96 % 0 % 1016 hPa 0,0 l/m 1,1 km/h (1 Bft)
16.05.2011 05:10 22,2 C 6,6 C 9,6 C 97 % 0 % 1016 hPa 0,0 l/m 0,6 km/h (0 Bft)
16.05.2011 05:13 22,2 C 6,6 C 9,6 C 97 % 0 % 1017 hPa 0,0 l/m 0,6 km/h (0 Bft)
16.05.2011 05:16 22,2 C 6,6 C 9,6 C 97 % 0 % 1017 hPa 0,0 l/m 2,9 km/h (1 Bft)
16.05.2011 05:19 22,2 C 6,7 C 9,6 C 97 % 0 % 1017 hPa 0,0 l/m 0,1 km/h (0 Bft)
16.05.2011 05:22 22,2 C 6,6 C 9,6 C 97 % 0 % 1017 hPa 0,0 l/m 0,1 km/h (0 Bft)
16.05.2011 05:25 22,2 C 6,6 C 9,6 C 97 % 0 % 1017 hPa 0,0 l/m 1,9 km/h (1 Bft)
16.05.2011 05:28 22,3 C 6,6 C 9,6 C 97 % 0 % 1016 hPa 0,0 l/m 0,0 km/h (0 Bft)
16.05.2011 05:31 22,3 C 6,5 C 9,6 C 97 % 0 % 1017 hPa 0,0 l/m 0,4 km/h (0 Bft)
16.05.2011 05:34 22,2 C 6,5 C 9,6 C 97 % 0 % 1017 hPa 0,0 l/m 0,0 km/h (0 Bft)
16.05.2011 05:37 22,2 C 6,5 C 9,6 C 97 % 0 % 1017 hPa 0,0 l/m 0,0 km/h (0 Bft)
16.05.2011 05:40 22,3 C 6,5 C 9,6 C 97 % 0 % 1017 hPa 0,0 l/m 0,0 km/h (0 Bft)
16.05.2011 05:43 22,3 C 6,5 C 9,6 C 97 % 0 % 1017 hPa 0,0 l/m 0,0 km/h (0 Bft)
16.05.2011 05:46 22,3 C 6,5 C 9,6 C 96 % 0 % 1017 hPa 0,0 l/m 0,0 km/h (0 Bft)
16.05.2011 05:49 22,3 C 6,5 C 9,6 C 96 % 0 % 1017 hPa 0,0 l/m 0,3 km/h (0 Bft)
16.05.2011 05:52 22,3 C 6,5 C 9,6 C 96 % 0 % 1017 hPa 0,0 l/m 6,4 km/h (2 Bft)
16.05.2011 05:55 22,3 C 6,5 C 9,6 C 97 % 0 % 1017 hPa 0,0 l/m 7,5 km/h (2 Bft)
16.05.2011 05:58 22,3 C 6,5 C 9,5 C 97 % 0 % 1017 hPa 0,0 l/m 3,3 km/h (1 Bft)
16.05.2011 06:01 22,3 C 6,5 C 9,5 C 97 % 0 % 1017 hPa 0,0 l/m 3,3 km/h (1 Bft)
16.05.2011 06:04 22,3 C 6,5 C 9,5 C 97 % 0 % 1017 hPa 0,0 l/m 2,5 km/h (1 Bft)
16.05.2011 06:07 22,3 C 6,5 C 9,5 C 97 % 0 % 1017 hPa 0,0 l/m 7,1 km/h (2 Bft)
16.05.2011 06:10 22,3 C 6,4 C 9,6 C 97 % 0 % 1017 hPa 0,0 l/m 10,5 km/h (2 Bft)
16.05.2011 06:13 22,3 C 6,4 C 9,6 C 97 % 0 % 1017 hPa 0,0 l/m 5,0 km/h (1 Bft)
16.05.2011 06:16 22,4 C 6,5 C 9,6 C 97 % 0 % 1017 hPa 0,0 l/m 3,5 km/h (1 Bft)
16.05.2011 06:19 22,4 C 6,5 C 9,6 C 97 % 0 % 1017 hPa 0,0 l/m 5,4 km/h (1 Bft)
16.05.2011 06:22 22,3 C 6,5 C 9,6 C 98 % 0 % 1017 hPa 0,0 l/m 5,9 km/h (2 Bft)
16.05.2011 06:25 22,4 C 6,5 C 9,6 C 98 % 0 % 1017 hPa 0,0 l/m 3,3 km/h (1 Bft)
16.05.2011 06:28 22,4 C 6,5 C 9,6 C 98 % 0 % 1017 hPa 0,0 l/m 2,2 km/h (1 Bft)
16.05.2011 06:31 22,4 C 6,5 C 9,6 C 98 % 0 % 1017 hPa 0,0 l/m 0,0 km/h (0 Bft)
16.05.2011 06:34 22,5 C 6,5 C 9,6 C 98 % 0 % 1017 hPa 0,0 l/m 0,4 km/h (0 Bft)
16.05.2011 06:37 22,5 C 6,6 C 9,7 C 98 % 0 % 1017 hPa 0,0 l/m 0,0 km/h (0 Bft)
16.05.2011 06:40 22,5 C 6,6 C 9,6 C 98 % 0 % 1017 hPa 0,0 l/m 0,0 km/h (0 Bft)
16.05.2011 06:43 22,5 C 6,6 C 9,7 C 98 % 0 % 1017 hPa 0,0 l/m 0,0 km/h (0 Bft)
16.05.2011 06:46 22,5 C 6,6 C 9,6 C 98 % 0 % 1017 hPa 0,0 l/m 0,0 km/h (0 Bft)
16.05.2011 06:49 22,6 C 6,5 C 9,6 C 98 % 0 % 1017 hPa 0,0 l/m 0,0 km/h (0 Bft)
16.05.2011 06:52 22,6 C 6,6 C 9,6 C 98 % 0 % 1017 hPa 0,0 l/m 0,0 km/h (0 Bft)
16.05.2011 06:55 22,6 C 6,6 C 9,7 C 98 % 0 % 1017 hPa 0,0 l/m 0,0 km/h (0 Bft)
16.05.2011 06:58 22,5 C 6,6 C 9,7 C 98 % 0 % 1017 hPa 0,0 l/m 0,0 km/h (0 Bft)
16.05.2011 07:01 22,6 C 6,6 C 9,9 C 98 % 0 % 1017 hPa 0,0 l/m 0,0 km/h (0 Bft)
16.05.2011 07:04 22,6 C 6,7 C 10,0 C 98 % 0 % 1017 hPa 0,0 l/m 0,0 km/h (0 Bft)
16.05.2011 07:07 22,6 C 6,8 C 10,0 C 97 % 0 % 1017 hPa 0,0 l/m 0,0 km/h (0 Bft)
16.05.2011 07:10 22,6 C 6,8 C 10,1 C 97 % 0 % 1018 hPa 0,0 l/m 0,0 km/h (0 Bft)
16.05.2011 07:13 22,6 C 6,9 C 10,1 C 97 % 0 % 1018 hPa 0,0 l/m 0,0 km/h (0 Bft)
16.05.2011 07:16 21,4 C 7,0 C 10,2 C 97 % 0 % 1018 hPa 0,0 l/m 0,0 km/h (0 Bft)
16.05.2011 07:19 21,4 C 7,0 C 10,3 C 97 % 0 % 1018 hPa 0,0 l/m 0,0 km/h (0 Bft)
16.05.2011 07:22 19,7 C 7,1 C 10,3 C 97 % 0 % 1018 hPa 0,0 l/m 0,0 km/h (0 Bft)
16.05.2011 07:25 19,2 C 7,2 C 10,3 C 97 % 0 % 1018 hPa 0,0 l/m 0,0 km/h (0 Bft)
16.05.2011 07:28 19,3 C 7,4 C 10,4 C 96 % 0 % 1018 hPa 0,0 l/m 0,0 km/h (0 Bft)
16.05.2011 07:31 19,7 C 7,5 C 10,4 C 96 % 0 % 1018 hPa 0,0 l/m 0,0 km/h (0 Bft)
16.05.2011 07:34 20,1 C 7,6 C 10,4 C 96 % 0 % 1018 hPa 0,0 l/m 2,0 km/h (1 Bft)
16.05.2011 07:37 20,5 C 7,6 C 10,3 C 96 % 0 % 1018 hPa 0,0 l/m 6,5 km/h (2 Bft)
16.05.2011 07:40 20,8 C 7,6 C 10,4 C 96 % 0 % 1018 hPa 0,0 l/m 6,5 km/h (2 Bft)
16.05.2011 07:43 21,2 C 7,7 C 10,4 C 96 % 0 % 1018 hPa 0,0 l/m 10,6 km/h (2 Bft)
16.05.2011 07:46 21,4 C 7,7 C 10,3 C 96 % 0 % 1018 hPa 0,0 l/m 10,6 km/h (2 Bft)
16.05.2011 07:49 21,4 C 7,7 C 10,4 C 96 % 0 % 1018 hPa 0,0 l/m 4,4 km/h (1 Bft)
16.05.2011 07:52 21,6 C 7,8 C 10,4 C 96 % 0 % 1018 hPa 0,0 l/m 4,2 km/h (1 Bft)
16.05.2011 07:55 21,6 C 7,9 C 10,4 C 96 % 0 % 1018 hPa 0,0 l/m 0,1 km/h (0 Bft)
16.05.2011 07:58 21,7 C 7,9 C 10,6 C 96 % 0 % 1018 hPa 0,0 l/m 3,9 km/h (1 Bft)
16.05.2011 08:01 21,8 C 8,0 C 10,6 C 96 % 0 % 1018 hPa 0,0 l/m 9,4 km/h (2 Bft)
16.05.2011 08:04 21,8 C 8,2 C 10,7 C 96 % 0 % 1018 hPa 0,0 l/m 13,5 km/h (3 Bft)
16.05.2011 08:07 21,8 C 8,3 C 10,7 C 96 % 0 % 1018 hPa 0,0 l/m 13,5 km/h (3 Bft)
16.05.2011 08:10 21,9 C 8,5 C 10,8 C 96 % 0 % 1018 hPa 0,0 l/m 8,1 km/h (2 Bft)
16.05.2011 08:13 21,9 C 8,5 C 10,8 C 96 % 0 % 1018 hPa 0,0 l/m 17,6 km/h (3 Bft)
16.05.2011 08:16 21,9 C 8,5 C 10,8 C 96 % 0 % 1018 hPa 0,0 l/m 10,9 km/h (2 Bft)
16.05.2011 08:19 21,9 C 8,5 C 10,8 C 96 % 0 % 1018 hPa 0,0 l/m 11,3 km/h (2 Bft)
16.05.2011 08:22 22,0 C 8,5 C 10,8 C 96 % 0 % 1018 hPa 0,0 l/m 13,6 km/h (3 Bft)
16.05.2011 08:25 22,0 C 8,6 C 10,8 C 95 % 0 % 1018 hPa 0,0 l/m 4,2 km/h (1 Bft)
16.05.2011 08:28 22,0 C 8,6 C 10,8 C 95 % 0 % 1018 hPa 0,0 l/m 0,3 km/h (0 Bft)
16.05.2011 08:31 22,0 C 8,7 C 10,9 C 95 % 0 % 1018 hPa 0,0 l/m 0,3 km/h (0 Bft)
16.05.2011 08:34 22,0 C 8,8 C 10,9 C 95 % 0 % 1018 hPa 0,0 l/m 5,0 km/h (1 Bft)
16.05.2011 08:37 22,0 C 8,8 C 10,9 C 95 % 0 % 1018 hPa 0,0 l/m 8,4 km/h (2 Bft)
16.05.2011 08:40 22,0 C 8,8 C 10,8 C 94 % 0 % 1018 hPa 0,0 l/m 17,8 km/h (3 Bft)
16.05.2011 08:43 22,0 C 8,8 C 10,8 C 95 % 0 % 1018 hPa 0,0 l/m 11,4 km/h (2 Bft)
16.05.2011 08:46 22,0 C 8,8 C 10,7 C 94 % 0 % 1018 hPa 0,0 l/m 7,7 km/h (2 Bft)
16.05.2011 08:49 22,0 C 8,8 C 10,7 C 94 % 0 % 1018 hPa 0,0 l/m 7,3 km/h (2 Bft)
16.05.2011 08:52 22,0 C 8,9 C 10,8 C 95 % 0 % 1018 hPa 0,0 l/m 10,3 km/h (2 Bft)
16.05.2011 08:55 22,0 C 8,9 C 10,7 C 94 % 0 % 1018 hPa 0,0 l/m 9,4 km/h (2 Bft)
16.05.2011 08:58 22,0 C 9,0 C 10,7 C 94 % 0 % 1018 hPa 0,0 l/m 9,4 km/h (2 Bft)
16.05.2011 09:01 22,0 C 9,2 C 10,8 C 94 % 0 % 1018 hPa 0,0 l/m 8,4 km/h (2 Bft)
16.05.2011 09:04 22,0 C 9,5 C 10,8 C 93 % 0 % 1018 hPa 0,0 l/m 11,8 km/h (2 Bft)
16.05.2011 09:07 22,0 C 9,8 C 10,9 C 93 % 0 % 1018 hPa 0,0 l/m 10,8 km/h (2 Bft)
16.05.2011 09:10 22,0 C 9,7 C 11,0 C 92 % 0 % 1018 hPa 0,0 l/m 19,1 km/h (3 Bft)
16.05.2011 09:13 22,0 C 9,6 C 10,9 C 91 % 0 % 1018 hPa 0,0 l/m 13,2 km/h (3 Bft)
16.05.2011 09:16 22,0 C 9,7 C 11,0 C 90 % 0 % 1018 hPa 0,0 l/m 11,2 km/h (2 Bft)
16.05.2011 09:19 22,0 C 9,9 C 11,2 C 90 % 0 % 1018 hPa 0,0 l/m 14,5 km/h (3 Bft)
16.05.2011 09:22 22,0 C 10,0 C 11,2 C 90 % 0 % 1018 hPa 0,0 l/m 13,0 km/h (3 Bft)
16.05.2011 09:25 22,0 C 10,1 C 11,4 C 89 % 0 % 1018 hPa 0,0 l/m 10,9 km/h (2 Bft)
16.05.2011 09:28 22,0 C 10,3 C 11,7 C 89 % 0 % 1018 hPa 0,0 l/m 15,4 km/h (3 Bft)
16.05.2011 09:31 22,0 C 10,5 C 11,5 C 88 % 0 % 1018 hPa 0,0 l/m 15,2 km/h (3 Bft)
16.05.2011 09:34 22,0 C 10,5 C 11,5 C 88 % 0 % 1018 hPa 0,0 l/m 15,3 km/h (3 Bft)
16.05.2011 09:37 22,0 C 10,5 C 11,3 C 87 % 0 % 1018 hPa 0,0 l/m 18,1 km/h (3 Bft)
16.05.2011 09:40 22,0 C 10,4 C 11,3 C 85 % 0 % 1018 hPa 0,0 l/m 15,5 km/h (3 Bft)
16.05.2011 09:43 22,0 C 10,4 C 11,3 C 85 % 0 % 1018 hPa 0,0 l/m 10,3 km/h (2 Bft)
16.05.2011 09:46 22,0 C 10,4 C 11,3 C 86 % 0 % 1018 hPa 0,0 l/m 15,0 km/h (3 Bft)
16.05.2011 09:49 22,0 C 10,4 C 11,3 C 87 % 0 % 1018 hPa 0,0 l/m 15,9 km/h (3 Bft)
16.05.2011 09:52 22,0 C 10,6 C 11,3 C 87 % 0 % 1018 hPa 0,0 l/m 15,3 km/h (3 Bft)
16.05.2011 09:55 22,0 C 10,7 C 11,4 C 87 % 0 % 1018 hPa 0,0 l/m 12,5 km/h (3 Bft)
16.05.2011 09:58 22,0 C 11,0 C 11,4 C 85 % 0 % 1018 hPa 0,0 l/m 15,4 km/h (3 Bft)
16.05.2011 10:01 22,0 C 11,1 C 11,5 C 84 % 0 % 1018 hPa 0,0 l/m 16,6 km/h (3 Bft)
16.05.2011 10:04 22,0 C 11,2 C 11,5 C 84 % 0 % 1018 hPa 0,0 l/m 14,1 km/h (3 Bft)
16.05.2011 10:07 22,0 C 11,2 C 11,5 C 83 % 0 % 1018 hPa 0,0 l/m 13,5 km/h (3 Bft)
16.05.2011 10:10 22,0 C 11,2 C 11,5 C 83 % 0 % 1018 hPa 0,0 l/m 16,1 km/h (3 Bft)
16.05.2011 10:13 22,0 C 11,2 C 11,5 C 82 % 0 % 1018 hPa 0,0 l/m 15,6 km/h (3 Bft)
16.05.2011 10:16 22,0 C 11,2 C 11,5 C 82 % 0 % 1018 hPa 0,0 l/m 20,4 km/h (4 Bft)
16.05.2011 10:19 22,0 C 11,5 C 11,6 C 81 % 0 % 1018 hPa 0,0 l/m 10,7 km/h (2 Bft)
16.05.2011 10:22 22,0 C 11,6 C 11,6 C 80 % 0 % 1018 hPa 0,0 l/m 17,9 km/h (3 Bft)
16.05.2011 10:25 22,0 C 11,6 C 11,6 C 81 % 0 % 1018 hPa 0,0 l/m 16,1 km/h (3 Bft)
16.05.2011 10:28 22,0 C 11,7 C 11,5 C 79 % 0 % 1018 hPa 0,0 l/m 17,7 km/h (3 Bft)
16.05.2011 10:31 22,0 C 11,6 C 11,6 C 78 % 0 % 1018 hPa 0,0 l/m 14,2 km/h (3 Bft)
16.05.2011 10:34 22,0 C 11,8 C 12,1 C 79 % 0 % 1018 hPa 0,0 l/m 11,5 km/h (2 Bft)
16.05.2011 10:37 22,0 C 12,0 C 11,9 C 81 % 0 % 1018 hPa 0,0 l/m 14,8 km/h (3 Bft)
16.05.2011 10:40 22,0 C 12,1 C 11,9 C 81 % 0 % 1018 hPa 0,0 l/m 8,7 km/h (2 Bft)
16.05.2011 10:43 22,0 C 12,2 C 11,9 C 80 % 0 % 1018 hPa 0,0 l/m 11,4 km/h (2 Bft)
16.05.2011 10:46 22,0 C 12,2 C 11,9 C 82 % 0 % 1018 hPa 0,0 l/m 14,5 km/h (3 Bft)
16.05.2011 10:49 22,0 C 12,0 C 11,9 C 80 % 0 % 1018 hPa 0,0 l/m 13,3 km/h (3 Bft)
16.05.2011 10:52 22,0 C 11,8 C 11,8 C 79 % 0 % 1018 hPa 0,0 l/m 16,8 km/h (3 Bft)
16.05.2011 10:55 22,0 C 11,8 C 11,7 C 80 % 0 % 1018 hPa 0,0 l/m 16,9 km/h (3 Bft)
16.05.2011 10:58 22,0 C 11,8 C 11,7 C 80 % 0 % 1018 hPa 0,0 l/m 9,5 km/h (2 Bft)
16.05.2011 11:01 22,0 C 11,8 C 11,8 C 79 % 0 % 1018 hPa 0,0 l/m 13,4 km/h (3 Bft)
16.05.2011 11:04 22,0 C 12,0 C 11,9 C 81 % 0 % 1018 hPa 0,0 l/m 12,3 km/h (3 Bft)
16.05.2011 11:07 22,0 C 11,9 C 11,9 C 78 % 0 % 1018 hPa 0,0 l/m 23,5 km/h (4 Bft)
16.05.2011 11:10 22,0 C 11,9 C 11,8 C 79 % 0 % 1018 hPa 0,0 l/m 12,6 km/h (3 Bft)
16.05.2011 11:13 22,0 C 11,8 C 11,7 C 79 % 0 % 1018 hPa 0,0 l/m 15,0 km/h (3 Bft)
16.05.2011 11:16 22,1 C 11,6 C 11,6 C 78 % 0 % 1018 hPa 0,0 l/m 16,7 km/h (3 Bft)
16.05.2011 11:19 22,1 C 11,5 C 11,5 C 79 % 0 % 1018 hPa 0,0 l/m 15,4 km/h (3 Bft)
16.05.2011 11:22 22,1 C 11,4 C 11,4 C 80 % 0 % 1018 hPa 0,0 l/m 14,8 km/h (3 Bft)
16.05.2011 11:25 22,1 C 11,4 C 11,4 C 81 % 0 % 1018 hPa 0,0 l/m 14,8 km/h (3 Bft)
16.05.2011 11:28 22,1 C 11,5 C 11,4 C 81 % 0 % 1018 hPa 0,0 l/m 7,8 km/h (2 Bft)
16.05.2011 11:31 22,2 C 11,6 C 11,5 C 80 % 0 % 1018 hPa 0,0 l/m 12,0 km/h (2 Bft)
16.05.2011 11:34 22,2 C 11,9 C 11,6 C 79 % 0 % 1018 hPa 0,0 l/m 15,6 km/h (3 Bft)
16.05.2011 11:37 22,2 C 12,3 C 11,7 C 78 % 0 % 1018 hPa 0,0 l/m 6,7 km/h (2 Bft)
16.05.2011 11:40 22,2 C 12,5 C 12,0 C 75 % 0 % 1018 hPa 0,0 l/m 16,1 km/h (3 Bft)
16.05.2011 11:43 22,2 C 12,7 C 12,0 C 75 % 0 % 1018 hPa 0,0 l/m 20,3 km/h (4 Bft)
16.05.2011 11:46 22,2 C 12,7 C 12,1 C 75 % 0 % 1018 hPa 0,0 l/m 19,2 km/h (3 Bft)
16.05.2011 11:49 22,2 C 12,6 C 12,0 C 73 % 0 % 1018 hPa 0,0 l/m 21,1 km/h (4 Bft)
16.05.2011 11:52 22,2 C 12,5 C 12,0 C 73 % 0 % 1018 hPa 0,0 l/m 22,5 km/h (4 Bft)
16.05.2011 11:55 22,2 C 12,4 C 12,0 C 72 % 0 % 1018 hPa 0,0 l/m 25,1 km/h (4 Bft)
16.05.2011 11:58 22,2 C 12,3 C 11,9 C 73 % 0 % 1018 hPa 0,0 l/m 16,5 km/h (3 Bft)
16.05.2011 12:01 22,2 C 12,2 C 11,9 C 73 % 0 % 1018 hPa 0,0 l/m 17,0 km/h (3 Bft)
16.05.2011 12:04 22,2 C 12,2 C 11,9 C 73 % 0 % 1018 hPa 0,0 l/m 20,6 km/h (4 Bft)
16.05.2011 12:07 22,2 C 12,2 C 11,9 C 72 % 0 % 1018 hPa 0,0 l/m 20,5 km/h (4 Bft)
16.05.2011 12:10 22,1 C 12,3 C 11,9 C 73 % 0 % 1018 hPa 0,0 l/m 20,2 km/h (4 Bft)
16.05.2011 12:13 22,2 C 12,3 C 11,9 C 69 % 0 % 1018 hPa 0,0 l/m 27,5 km/h (4 Bft)
16.05.2011 12:16 22,1 C 12,1 C 11,7 C 67 % 0 % 1018 hPa 0,0 l/m 21,9 km/h (4 Bft)
16.05.2011 12:19 22,1 C 12,1 C 11,7 C 70 % 0 % 1018 hPa 0,0 l/m 14,3 km/h (3 Bft)
16.05.2011 12:22 22,2 C 12,2 C 11,8 C 71 % 0 % 1018 hPa 0,0 l/m 16,5 km/h (3 Bft)
16.05.2011 12:25 22,1 C 12,5 C 12,0 C 73 % 0 % 1018 hPa 0,0 l/m 14,5 km/h (3 Bft)
16.05.2011 12:28 22,1 C 12,8 C 12,1 C 74 % 0 % 1018 hPa 0,0 l/m 12,9 km/h (3 Bft)
16.05.2011 12:31 22,1 C 13,0 C 12,1 C 73 % 0 % 1018 hPa 0,0 l/m 19,5 km/h (3 Bft)
16.05.2011 12:34 22,1 C 12,9 C 12,2 C 71 % 0 % 1018 hPa 0,0 l/m 16,4 km/h (3 Bft)
16.05.2011 12:37 22,1 C 12,8 C 12,2 C 71 % 0 % 1018 hPa 0,0 l/m 7,0 km/h (2 Bft)
16.05.2011 12:40 22,1 C 12,9 C 12,2 C 73 % 0 % 1018 hPa 0,0 l/m 5,9 km/h (2 Bft)
16.05.2011 12:43 22,1 C 12,9 C 12,3 C 72 % 0 % 1018 hPa 0,0 l/m 14,0 km/h (3 Bft)
16.05.2011 12:46 22,1 C 13,1 C 12,5 C 73 % 0 % 1018 hPa 0,0 l/m 11,4 km/h (2 Bft)
16.05.2011 12:49 22,1 C 13,2 C 12,4 C 71 % 0 % 1018 hPa 0,0 l/m 12,9 km/h (3 Bft)
16.05.2011 12:52 22,0 C 13,1 C 12,4 C 70 % 0 % 1018 hPa 0,0 l/m 5,9 km/h (2 Bft)
16.05.2011 12:55 22,0 C 13,0 C 12,2 C 72 % 0 % 1018 hPa 0,0 l/m 9,9 km/h (2 Bft)
16.05.2011 12:58 22,0 C 12,9 C 12,2 C 72 % 0 % 1018 hPa 0,0 l/m 12,5 km/h (3 Bft)
16.05.2011 13:01 22,0 C 12,7 C 11,9 C 71 % 0 % 1018 hPa 0,0 l/m 12,3 km/h (3 Bft)
16.05.2011 13:04 22,0 C 12,6 C 11,8 C 73 % 0 % 1018 hPa 0,0 l/m 9,1 km/h (2 Bft)
16.05.2011 13:07 22,1 C 12,3 C 11,7 C 73 % 0 % 1018 hPa 0,0 l/m 15,2 km/h (3 Bft)
16.05.2011 13:10 22,0 C 12,1 C 11,5 C 73 % 0 % 1018 hPa 0,0 l/m 32,5 km/h (5 Bft)
16.05.2011 13:13 22,0 C 12,1 C 11,3 C 73 % 0 % 1018 hPa 0,0 l/m 29,4 km/h (5 Bft)
16.05.2011 13:16 22,0 C 11,5 C 11,2 C 77 % 0 % 1018 hPa 0,0 l/m 29,0 km/h (5 Bft)
16.05.2011 13:19 22,0 C 11,3 C 11,0 C 78 % 0 % 1018 hPa 0,0 l/m 16,8 km/h (3 Bft)
16.05.2011 13:22 22,0 C 11,1 C 10,9 C 80 % 0 % 1018 hPa 0,3 l/m 14,1 km/h (3 Bft)
16.05.2011 13:25 22,0 C 11,0 C 11,0 C 81 % 0 % 1018 hPa 0,3 l/m 9,4 km/h (2 Bft)
16.05.2011 13:28 22,0 C 11,0 C 11,1 C 82 % 0 % 1018 hPa 0,0 l/m 4,7 km/h (1 Bft)
16.05.2011 13:31 22,0 C 11,0 C 11,1 C 84 % 0 % 1018 hPa 0,0 l/m 6,2 km/h (2 Bft)
16.05.2011 13:34 22,0 C 11,0 C 11,3 C 84 % 0 % 1018 hPa 0,0 l/m 8,4 km/h (2 Bft)
16.05.2011 13:37 22,0 C 11,1 C 11,4 C 84 % 0 % 1018 hPa 0,0 l/m 6,0 km/h (2 Bft)
16.05.2011 13:40 22,0 C 11,2 C 11,5 C 84 % 0 % 1018 hPa 0,0 l/m 6,0 km/h (2 Bft)
16.05.2011 13:43 22,0 C 11,3 C 11,5 C 83 % 0 % 1018 hPa 0,0 l/m 7,3 km/h (2 Bft)
16.05.2011 13:46 22,0 C 11,4 C 11,6 C 81 % 0 % 1018 hPa 0,0 l/m 9,4 km/h (2 Bft)
16.05.2011 13:49 22,0 C 11,9 C 11,8 C 81 % 0 % 1018 hPa 0,0 l/m 14,3 km/h (3 Bft)
16.05.2011 13:52 22,0 C 11,9 C 11,9 C 78 % 0 % 1018 hPa 0,0 l/m 19,1 km/h (3 Bft)
16.05.2011 13:55 22,0 C 12,0 C 11,9 C 77 % 0 % 1018 hPa 0,0 l/m 28,7 km/h (4 Bft)
16.05.2011 13:58 22,1 C 12,0 C 11,9 C 76 % 0 % 1018 hPa 0,0 l/m 31,3 km/h (5 Bft)
16.05.2011 14:01 22,1 C 12,0 C 12,0 C 77 % 0 % 1018 hPa 0,0 l/m 23,0 km/h (4 Bft)
16.05.2011 14:04 22,1 C 12,1 C 11,9 C 77 % 0 % 1018 hPa 0,0 l/m 23,0 km/h (4 Bft)
16.05.2011 14:07 22,1 C 12,3 C 12,0 C 77 % 0 % 1018 hPa 0,0 l/m 21,6 km/h (4 Bft)
16.05.2011 14:10 22,2 C 12,3 C 12,3 C 75 % 0 % 1018 hPa 0,0 l/m 20,6 km/h (4 Bft)
16.05.2011 14:13 22,2 C 12,4 C 12,3 C 75 % 0 % 1018 hPa 0,0 l/m 23,0 km/h (4 Bft)
16.05.2011 14:16 22,2 C 12,5 C 12,3 C 75 % 0 % 1018 hPa 0,0 l/m 20,8 km/h (4 Bft)
16.05.2011 14:19 22,2 C 12,4 C 12,3 C 74 % 0 % 1018 hPa 0,0 l/m 22,8 km/h (4 Bft)
16.05.2011 14:22 22,1 C 12,4 C 12,3 C 74 % 0 % 1018 hPa 0,0 l/m 20,0 km/h (4 Bft)
16.05.2011 14:25 22,1 C 12,5 C 12,3 C 76 % 0 % 1018 hPa 0,0 l/m 20,1 km/h (4 Bft)
16.05.2011 14:28 22,2 C 12,7 C 12,7 C 77 % 0 % 1018 hPa 0,0 l/m 23,7 km/h (4 Bft)
16.05.2011 14:31 22,2 C 12,9 C 13,1 C 77 % 0 % 1018 hPa 0,0 l/m 17,8 km/h (3 Bft)
16.05.2011 14:34 22,2 C 13,0 C 13,7 C 75 % 0 % 1018 hPa 0,0 l/m 21,7 km/h (4 Bft)
16.05.2011 14:37 22,2 C 13,1 C 13,9 C 74 % 0 % 1018 hPa 0,0 l/m 19,3 km/h (3 Bft)
16.05.2011 14:40 22,2 C 13,2 C 14,0 C 73 % 0 % 1018 hPa 0,0 l/m 21,9 km/h (4 Bft)
16.05.2011 14:43 22,2 C 13,3 C 14,3 C 73 % 0 % 1018 hPa 0,0 l/m 21,1 km/h (4 Bft)
16.05.2011 14:46 22,2 C 13,4 C 14,3 C 72 % 0 % 1018 hPa 0,0 l/m 32,6 km/h (5 Bft)
16.05.2011 14:49 22,2 C 13,4 C 14,2 C 71 % 0 % 1018 hPa 0,0 l/m 23,9 km/h (4 Bft)
16.05.2011 14:52 22,2 C 13,4 C 14,2 C 71 % 0 % 1018 hPa 0,0 l/m 13,2 km/h (3 Bft)
16.05.2011 14:55 22,2 C 13,5 C 14,3 C 71 % 0 % 1018 hPa 0,0 l/m 19,8 km/h (3 Bft)
16.05.2011 14:58 22,2 C 13,6 C 14,4 C 71 % 0 % 1018 hPa 0,0 l/m 18,8 km/h (3 Bft)
16.05.2011 15:01 22,2 C 13,7 C 14,4 C 67 % 0 % 1018 hPa 0,0 l/m 21,0 km/h (4 Bft)
16.05.2011 15:04 22,2 C 13,9 C 14,6 C 67 % 0 % 1018 hPa 0,0 l/m 23,0 km/h (4 Bft)
16.05.2011 15:07 22,1 C 13,9 C 14,7 C 68 % 0 % 1018 hPa 0,0 l/m 17,0 km/h (3 Bft)
16.05.2011 15:10 22,1 C 14,1 C 14,9 C 67 % 0 % 1017 hPa 0,0 l/m 22,6 km/h (4 Bft)
16.05.2011 15:13 22,1 C 14,1 C 15,0 C 65 % 0 % 1017 hPa 0,0 l/m 31,7 km/h (5 Bft)
16.05.2011 15:16 22,1 C 14,1 C 15,0 C 64 % 0 % 1017 hPa 0,0 l/m 21,2 km/h (4 Bft)
16.05.2011 15:19 22,1 C 14,2 C 15,0 C 66 % 0 % 1017 hPa 0,0 l/m 20,9 km/h (4 Bft)
16.05.2011 15:22 22,1 C 14,4 C 14,9 C 67 % 0 % 1017 hPa 0,0 l/m 20,8 km/h (4 Bft)
16.05.2011 15:25 22,1 C 14,4 C 15,0 C 66 % 0 % 1017 hPa 0,0 l/m 26,5 km/h (4 Bft)
16.05.2011 15:28 22,1 C 14,6 C 15,1 C 66 % 0 % 1017 hPa 0,0 l/m 18,8 km/h (3 Bft)
16.05.2011 15:31 22,1 C 14,6 C 14,9 C 63 % 0 % 1017 hPa 0,0 l/m 29,6 km/h (5 Bft)
16.05.2011 15:34 22,2 C 14,5 C 14,9 C 61 % 0 % 1017 hPa 0,0 l/m 22,7 km/h (4 Bft)
16.05.2011 15:37 22,2 C 14,6 C 14,9 C 62 % 0 % 1017 hPa 0,0 l/m 25,9 km/h (4 Bft)
16.05.2011 15:40 22,2 C 14,6 C 14,9 C 60 % 0 % 1017 hPa 0,0 l/m 23,3 km/h (4 Bft)
16.05.2011 15:43 22,2 C 14,6 C 15,0 C 60 % 0 % 1017 hPa 0,0 l/m 18,1 km/h (3 Bft)
16.05.2011 15:46 22,3 C 14,7 C 15,1 C 62 % 0 % 1017 hPa 0,0 l/m 20,7 km/h (4 Bft)
16.05.2011 15:49 22,2 C 14,8 C 15,2 C 60 % 0 % 1017 hPa 0,0 l/m 27,0 km/h (4 Bft)
16.05.2011 15:52 22,3 C 15,0 C 15,3 C 60 % 0 % 1017 hPa 0,0 l/m 19,5 km/h (3 Bft)
16.05.2011 15:55 22,3 C 15,0 C 15,4 C 60 % 0 % 1017 hPa 0,0 l/m 21,3 km/h (4 Bft)
16.05.2011 15:58 22,2 C 15,1 C 15,2 C 57 % 0 % 1017 hPa 0,0 l/m 24,0 km/h (4 Bft)
16.05.2011 16:01 22,3 C 14,7 C 14,5 C 55 % 0 % 1017 hPa 0,0 l/m 25,3 km/h (4 Bft)
16.05.2011 16:04 22,3 C 14,5 C 14,1 C 57 % 0 % 1017 hPa 0,0 l/m 22,0 km/h (4 Bft)
16.05.2011 16:07 22,4 C 14,5 C 14,1 C 59 % 0 % 1017 hPa 0,0 l/m 16,7 km/h (3 Bft)
16.05.2011 16:10 22,3 C 14,6 C 14,3 C 60 % 0 % 1017 hPa 0,0 l/m 16,3 km/h (3 Bft)
16.05.2011 16:13 22,3 C 14,7 C 14,5 C 60 % 0 % 1017 hPa 0,0 l/m 16,2 km/h (3 Bft)
16.05.2011 16:16 22,3 C 14,8 C 14,7 C 60 % 0 % 1017 hPa 0,0 l/m 21,3 km/h (4 Bft)
16.05.2011 16:19 22,3 C 14,9 C 14,9 C 58 % 0 % 1017 hPa 0,0 l/m 21,3 km/h (4 Bft)
16.05.2011 16:22 22,3 C 14,9 C 14,9 C 57 % 0 % 1017 hPa 0,0 l/m 25,6 km/h (4 Bft)
16.05.2011 16:25 22,3 C 14,9 C 14,1 C 57 % 0 % 1017 hPa 0,0 l/m 17,1 km/h (3 Bft)
16.05.2011 16:28 22,3 C 14,5 C 13,8 C 58 % 0 % 1017 hPa 0,0 l/m 17,7 km/h (3 Bft)
16.05.2011 16:31 22,3 C 14,3 C 13,5 C 58 % 0 % 1017 hPa 0,0 l/m 28,9 km/h (5 Bft)
16.05.2011 16:34 22,3 C 14,2 C 13,2 C 57 % 0 % 1017 hPa 0,0 l/m 27,5 km/h (4 Bft)
16.05.2011 16:37 22,3 C 14,1 C 13,1 C 58 % 0 % 1017 hPa 0,0 l/m 23,0 km/h (4 Bft)
16.05.2011 16:40 22,2 C 14,0 C 13,0 C 59 % 0 % 1017 hPa 0,0 l/m 22,2 km/h (4 Bft)
16.05.2011 16:43 22,2 C 14,0 C 13,1 C 59 % 0 % 1017 hPa 0,0 l/m 20,5 km/h (4 Bft)
16.05.2011 16:46 22,2 C 14,1 C 13,0 C 60 % 0 % 1017 hPa 0,0 l/m 21,5 km/h (4 Bft)
16.05.2011 16:49 22,2 C 14,1 C 13,0 C 60 % 0 % 1017 hPa 0,0 l/m 18,3 km/h (3 Bft)
16.05.2011 16:52 22,3 C 14,5 C 13,8 C 59 % 0 % 1017 hPa 0,0 l/m 19,5 km/h (3 Bft)
16.05.2011 16:55 22,2 C 14,5 C 14,1 C 60 % 0 % 1017 hPa 0,0 l/m 18,6 km/h (3 Bft)
16.05.2011 16:58 22,3 C 14,4 C 14,1 C 58 % 0 % 1017 hPa 0,0 l/m 22,6 km/h (4 Bft)
16.05.2011 17:01 22,2 C 14,2 C 13,7 C 58 % 0 % 1017 hPa 0,0 l/m 27,0 km/h (4 Bft)
16.05.2011 17:04 22,2 C 14,1 C 13,4 C 59 % 0 % 1017 hPa 0,0 l/m 25,6 km/h (4 Bft)
16.05.2011 17:07 22,2 C 14,1 C 13,2 C 59 % 0 % 1017 hPa 0,0 l/m 30,3 km/h (5 Bft)
16.05.2011 17:10 22,2 C 14,3 C 13,6 C 60 % 0 % 1017 hPa 0,0 l/m 26,7 km/h (4 Bft)
16.05.2011 17:13 22,2 C 14,5 C 13,9 C 58 % 0 % 1017 hPa 0,0 l/m 22,6 km/h (4 Bft)
16.05.2011 17:16 22,2 C 14,5 C 14,2 C 58 % 0 % 1017 hPa 0,0 l/m 33,2 km/h (5 Bft)
16.05.2011 17:19 22,3 C 14,7 C 14,1 C 58 % 0 % 1017 hPa 0,0 l/m 26,1 km/h (4 Bft)
16.05.2011 17:22 22,3 C 14,7 C 14,1 C 58 % 0 % 1017 hPa 0,0 l/m 24,3 km/h (4 Bft)
16.05.2011 17:25 22,3 C 14,8 C 14,2 C 58 % 0 % 1017 hPa 0,0 l/m 21,4 km/h (4 Bft)
16.05.2011 17:28 22,2 C 14,8 C 14,3 C 57 % 0 % 1017 hPa 0,0 l/m 23,8 km/h (4 Bft)
16.05.2011 17:31 22,2 C 14,7 C 14,2 C 54 % 0 % 1017 hPa 0,0 l/m 30,8 km/h (5 Bft)
16.05.2011 17:34 22,2 C 14,8 C 14,2 C 56 % 0 % 1017 hPa 0,0 l/m 25,6 km/h (4 Bft)
16.05.2011 17:37 22,2 C 14,8 C 14,2 C 56 % 0 % 1017 hPa 0,0 l/m 17,8 km/h (3 Bft)
16.05.2011 17:40 22,2 C 14,8 C 14,4 C 57 % 0 % 1017 hPa 0,0 l/m 16,2 km/h (3 Bft)
16.05.2011 17:43 22,2 C 14,8 C 14,2 C 56 % 0 % 1017 hPa 0,0 l/m 17,6 km/h (3 Bft)
16.05.2011 17:46 22,2 C 14,8 C 14,2 C 56 % 0 % 1017 hPa 0,0 l/m 18,4 km/h (3 Bft)
16.05.2011 17:49 22,2 C 14,8 C 14,2 C 57 % 0 % 1017 hPa 0,0 l/m 18,6 km/h (3 Bft)
16.05.2011 17:52 22,2 C 14,7 C 14,2 C 55 % 0 % 1017 hPa 0,0 l/m 22,3 km/h (4 Bft)
16.05.2011 17:55 22,2 C 14,6 C 13,9 C 56 % 0 % 1017 hPa 0,0 l/m 21,0 km/h (4 Bft)
16.05.2011 17:58 22,2 C 14,5 C 13,7 C 57 % 0 % 1017 hPa 0,0 l/m 13,1 km/h (3 Bft)
16.05.2011 18:01 22,1 C 14,4 C 13,5 C 59 % 0 % 1017 hPa 0,0 l/m 17,6 km/h (3 Bft)
16.05.2011 18:04 22,2 C 14,3 C 13,4 C 58 % 0 % 1017 hPa 0,0 l/m 21,8 km/h (4 Bft)
16.05.2011 18:07 22,2 C 14,4 C 13,4 C 57 % 0 % 1017 hPa 0,0 l/m 18,3 km/h (3 Bft)
16.05.2011 18:10 22,1 C 14,4 C 13,5 C 55 % 0 % 1017 hPa 0,0 l/m 20,8 km/h (4 Bft)
16.05.2011 18:13 22,2 C 14,4 C 13,5 C 56 % 0 % 1017 hPa 0,0 l/m 16,7 km/h (3 Bft)
16.05.2011 18:16 22,2 C 14,3 C 13,3 C 56 % 0 % 1017 hPa 0,0 l/m 18,6 km/h (3 Bft)
16.05.2011 18:19 22,2 C 14,1 C 13,1 C 55 % 0 % 1017 hPa 0,0 l/m 18,6 km/h (3 Bft)
16.05.2011 18:22 22,2 C 14,1 C 12,9 C 55 % 0 % 1017 hPa 0,0 l/m 26,0 km/h (4 Bft)
16.05.2011 18:25 22,3 C 14,0 C 12,8 C 56 % 0 % 1017 hPa 0,0 l/m 24,0 km/h (4 Bft)
16.05.2011 18:28 22,3 C 13,9 C 12,8 C 56 % 0 % 1017 hPa 0,0 l/m 19,8 km/h (3 Bft)
16.05.2011 18:31 22,4 C 14,0 C 12,8 C 56 % 0 % 1017 hPa 0,0 l/m 17,5 km/h (3 Bft)
16.05.2011 18:34 22,4 C 13,9 C 12,8 C 57 % 0 % 1017 hPa 0,0 l/m 16,8 km/h (3 Bft)
16.05.2011 18:37 22,5 C 13,9 C 12,8 C 58 % 0 % 1017 hPa 0,0 l/m 13,6 km/h (3 Bft)
16.05.2011 18:40 22,5 C 13,9 C 12,8 C 58 % 0 % 1017 hPa 0,0 l/m 16,7 km/h (3 Bft)
16.05.2011 18:43 22,6 C 13,9 C 12,7 C 59 % 0 % 1017 hPa 0,0 l/m 18,6 km/h (3 Bft)
16.05.2011 18:46 22,6 C 13,9 C 12,7 C 59 % 0 % 1017 hPa 0,0 l/m 16,6 km/h (3 Bft)
16.05.2011 18:49 22,6 C 13,8 C 12,7 C 60 % 0 % 1017 hPa 0,0 l/m 16,6 km/h (3 Bft)
16.05.2011 18:52 22,6 C 13,8 C 12,7 C 60 % 0 % 1017 hPa 0,0 l/m 16,6 km/h (3 Bft)
16.05.2011 18:55 22,6 C 13,8 C 12,7 C 60 % 0 % 1017 hPa 0,0 l/m 21,3 km/h (4 Bft)
16.05.2011 18:58 22,6 C 13,8 C 12,7 C 61 % 0 % 1017 hPa 0,0 l/m 15,2 km/h (3 Bft)
16.05.2011 19:01 22,6 C 13,7 C 12,6 C 60 % 0 % 1017 hPa 0,0 l/m 13,9 km/h (3 Bft)
16.05.2011 19:04 22,4 C 13,7 C 12,6 C 61 % 0 % 1017 hPa 0,0 l/m 14,9 km/h (3 Bft)
16.05.2011 19:07 21,8 C 13,6 C 12,6 C 61 % 0 % 1017 hPa 0,0 l/m 16,0 km/h (3 Bft)
16.05.2011 19:10 21,3 C 13,6 C 12,6 C 62 % 0 % 1017 hPa 0,0 l/m 11,3 km/h (2 Bft)
16.05.2011 19:13 21,0 C 13,6 C 12,6 C 62 % 0 % 1017 hPa 0,0 l/m 11,5 km/h (2 Bft)
16.05.2011 19:16 20,8 C 13,6 C 12,5 C 62 % 0 % 1017 hPa 0,0 l/m 13,9 km/h (3 Bft)
16.05.2011 19:19 20,5 C 13,6 C 12,5 C 62 % 0 % 1017 hPa 0,0 l/m 10,8 km/h (2 Bft)
16.05.2011 19:22 20,3 C 13,6 C 12,5 C 62 % 0 % 1017 hPa 0,0 l/m 18,8 km/h (3 Bft)
16.05.2011 19:25 20,2 C 13,5 C 12,5 C 61 % 0 % 1017 hPa 0,0 l/m 14,0 km/h (3 Bft)
16.05.2011 19:28 20,3 C 13,5 C 12,5 C 61 % 0 % 1018 hPa 0,0 l/m 12,9 km/h (3 Bft)
16.05.2011 19:31 20,7 C 13,4 C 12,5 C 61 % 0 % 1018 hPa 0,0 l/m 11,8 km/h (2 Bft)
16.05.2011 19:34 21,0 C 13,4 C 12,5 C 61 % 0 % 1017 hPa 0,0 l/m 10,2 km/h (2 Bft)
16.05.2011 19:37 21,1 C 13,4 C 12,4 C 61 % 0 % 1017 hPa 0,0 l/m 7,3 km/h (2 Bft)
16.05.2011 19:40 21,2 C 13,4 C 12,4 C 61 % 0 % 1017 hPa 0,0 l/m 8,0 km/h (2 Bft)
16.05.2011 19:43 21,4 C 13,3 C 12,4 C 62 % 0 % 1017 hPa 0,0 l/m 7,2 km/h (2 Bft)
16.05.2011 19:46 21,4 C 13,3 C 12,4 C 61 % 0 % 1017 hPa 0,0 l/m 8,1 km/h (2 Bft)
16.05.2011 19:49 21,6 C 13,3 C 12,4 C 62 % 0 % 1017 hPa 0,0 l/m 5,7 km/h (1 Bft)
16.05.2011 19:52 21,6 C 13,2 C 12,4 C 62 % 0 % 1017 hPa 0,0 l/m 7,4 km/h (2 Bft)
16.05.2011 19:55 21,6 C 13,2 C 12,4 C 62 % 0 % 1017 hPa 0,0 l/m 4,2 km/h (1 Bft)
16.05.2011 19:58 21,7 C 13,2 C 12,3 C 62 % 0 % 1017 hPa 0,0 l/m 8,3 km/h (2 Bft)
16.05.2011 20:01 21,8 C 13,2 C 12,3 C 63 % 0 % 1017 hPa 0,0 l/m 8,3 km/h (2 Bft)
16.05.2011 20:04 21,8 C 13,1 C 12,3 C 62 % 0 % 1018 hPa 0,0 l/m 7,8 km/h (2 Bft)
16.05.2011 20:07 21,8 C 13,1 C 12,3 C 63 % 0 % 1018 hPa 0,0 l/m 8,8 km/h (2 Bft)
16.05.2011 20:10 21,8 C 13,1 C 12,3 C 63 % 0 % 1018 hPa 0,0 l/m 3,8 km/h (1 Bft)
16.05.2011 20:13 21,9 C 13,1 C 12,3 C 63 % 0 % 1018 hPa 0,0 l/m 4,6 km/h (1 Bft)
16.05.2011 20:16 21,9 C 13,0 C 12,2 C 64 % 0 % 1018 hPa 0,0 l/m 2,2 km/h (1 Bft)
16.05.2011 20:19 21,9 C 13,0 C 12,3 C 64 % 0 % 1018 hPa 0,0 l/m 6,0 km/h (2 Bft)
16.05.2011 20:22 21,9 C 13,0 C 12,2 C 64 % 0 % 1018 hPa 0,0 l/m 2,0 km/h (1 Bft)
16.05.2011 20:25 22,0 C 13,0 C 12,2 C 64 % 0 % 1018 hPa 0,0 l/m 0,8 km/h (0 Bft)
16.05.2011 20:28 22,0 C 12,9 C 12,2 C 65 % 0 % 1018 hPa 0,0 l/m 3,4 km/h (1 Bft)
16.05.2011 20:31 22,0 C 12,9 C 12,2 C 65 % 0 % 1018 hPa 0,0 l/m 3,4 km/h (1 Bft)
16.05.2011 20:34 22,0 C 12,9 C 12,2 C 65 % 0 % 1018 hPa 0,0 l/m 3,4 km/h (1 Bft)
16.05.2011 20:37 22,0 C 12,8 C 12,2 C 65 % 0 % 1018 hPa 0,0 l/m 1,0 km/h (0 Bft)
16.05.2011 20:40 22,0 C 12,8 C 12,1 C 65 % 0 % 1018 hPa 0,0 l/m 3,3 km/h (1 Bft)
16.05.2011 20:43 22,0 C 12,8 C 12,1 C 65 % 0 % 1018 hPa 0,0 l/m 0,4 km/h (0 Bft)
16.05.2011 20:46 22,0 C 12,7 C 12,2 C 66 % 0 % 1018 hPa 0,0 l/m 0,4 km/h (0 Bft)
16.05.2011 20:49 22,0 C 12,7 C 12,1 C 67 % 0 % 1018 hPa 0,0 l/m 0,6 km/h (0 Bft)
16.05.2011 20:52 22,0 C 12,7 C 12,1 C 67 % 0 % 1018 hPa 0,0 l/m 0,0 km/h (0 Bft)
16.05.2011 20:55 22,0 C 12,6 C 12,1 C 68 % 0 % 1018 hPa 0,0 l/m 0,1 km/h (0 Bft)
16.05.2011 20:58 22,0 C 12,6 C 12,1 C 69 % 0 % 1018 hPa 0,0 l/m 0,2 km/h (0 Bft)
16.05.2011 21:01 22,0 C 12,5 C 12,0 C 69 % 0 % 1018 hPa 0,0 l/m 0,8 km/h (0 Bft)
16.05.2011 21:04 22,0 C 12,5 C 12,0 C 69 % 0 % 1018 hPa 0,0 l/m 0,8 km/h (0 Bft)
16.05.2011 21:07 22,0 C 12,5 C 12,0 C 69 % 0 % 1018 hPa 0,0 l/m 0,9 km/h (0 Bft)
16.05.2011 21:10 22,0 C 12,5 C 12,0 C 69 % 0 % 1018 hPa 0,0 l/m 0,4 km/h (0 Bft)
16.05.2011 21:13 22,0 C 12,4 C 12,0 C 69 % 0 % 1018 hPa 0,0 l/m 0,4 km/h (0 Bft)
16.05.2011 21:16 22,0 C 12,4 C 12,0 C 69 % 0 % 1018 hPa 0,0 l/m 0,4 km/h (0 Bft)
16.05.2011 21:19 22,0 C 12,4 C 12,0 C 69 % 0 % 1018 hPa 0,0 l/m 0,6 km/h (0 Bft)
16.05.2011 21:22 22,0 C 12,4 C 12,0 C 70 % 0 % 1018 hPa 0,0 l/m 2,9 km/h (1 Bft)
16.05.2011 21:25 22,0 C 12,3 C 12,0 C 70 % 0 % 1018 hPa 0,0 l/m 3,0 km/h (1 Bft)
16.05.2011 21:28 22,0 C 12,3 C 12,0 C 70 % 0 % 1018 hPa 0,0 l/m 2,4 km/h (1 Bft)
16.05.2011 21:31 22,0 C 12,3 C 11,9 C 70 % 0 % 1018 hPa 0,0 l/m 1,0 km/h (0 Bft)
16.05.2011 21:34 22,0 C 12,2 C 11,9 C 71 % 0 % 1018 hPa 0,0 l/m 2,3 km/h (1 Bft)
16.05.2011 21:37 22,0 C 12,2 C 11,9 C 71 % 0 % 1018 hPa 0,0 l/m 1,8 km/h (1 Bft)
16.05.2011 21:40 22,0 C 12,2 C 11,9 C 72 % 0 % 1018 hPa 0,0 l/m 1,6 km/h (1 Bft)
16.05.2011 21:43 22,0 C 12,2 C 11,9 C 72 % 0 % 1018 hPa 0,0 l/m 1,5 km/h (1 Bft)
16.05.2011 21:46 22,0 C 12,2 C 11,9 C 72 % 0 % 1018 hPa 0,0 l/m 3,3 km/h (1 Bft)
16.05.2011 21:49 22,0 C 12,2 C 11,9 C 72 % 0 % 1018 hPa 0,0 l/m 1,8 km/h (1 Bft)
16.05.2011 21:52 22,0 C 12,2 C 11,9 C 72 % 0 % 1018 hPa 0,0 l/m 0,7 km/h (0 Bft)
16.05.2011 21:55 22,0 C 12,1 C 11,9 C 73 % 0 % 1018 hPa 0,0 l/m 1,3 km/h (1 Bft)
16.05.2011 21:58 22,0 C 12,1 C 11,9 C 73 % 0 % 1018 hPa 0,0 l/m 0,1 km/h (0 Bft)
16.05.2011 22:01 22,0 C 12,1 C 11,9 C 73 % 0 % 1018 hPa 0,0 l/m 0,1 km/h (0 Bft)
16.05.2011 22:04 22,0 C 12,1 C 11,9 C 73 % 0 % 1018 hPa 0,0 l/m 0,3 km/h (0 Bft)
16.05.2011 22:07 22,0 C 12,1 C 11,9 C 73 % 0 % 1018 hPa 0,0 l/m 0,4 km/h (0 Bft)
16.05.2011 22:10 22,0 C 12,1 C 11,8 C 72 % 0 % 1018 hPa 0,0 l/m 6,0 km/h (2 Bft)
16.05.2011 22:13 22,0 C 12,1 C 11,8 C 72 % 0 % 1018 hPa 0,0 l/m 4,0 km/h (1 Bft)
16.05.2011 22:16 22,0 C 12,1 C 11,8 C 71 % 0 % 1018 hPa 0,0 l/m 2,4 km/h (1 Bft)
16.05.2011 22:19 22,0 C 12,2 C 11,8 C 71 % 0 % 1018 hPa 0,0 l/m 7,9 km/h (2 Bft)
16.05.2011 22:22 22,0 C 12,2 C 11,8 C 71 % 0 % 1018 hPa 0,0 l/m 5,0 km/h (1 Bft)
16.05.2011 22:25 22,0 C 12,2 C 11,8 C 71 % 0 % 1018 hPa 0,0 l/m 4,6 km/h (1 Bft)
16.05.2011 22:28 22,0 C 12,2 C 11,8 C 71 % 0 % 1018 hPa 0,0 l/m 6,0 km/h (2 Bft)
16.05.2011 22:31 22,0 C 12,2 C 11,8 C 71 % 0 % 1018 hPa 0,0 l/m 10,8 km/h (2 Bft)
16.05.2011 22:34 22,0 C 12,2 C 11,8 C 71 % 0 % 1018 hPa 0,0 l/m 8,4 km/h (2 Bft)
16.05.2011 22:37 22,0 C 12,2 C 11,8 C 71 % 0 % 1018 hPa 0,0 l/m 5,7 km/h (1 Bft)
16.05.2011 22:40 22,0 C 12,2 C 11,8 C 71 % 0 % 1018 hPa 0,0 l/m 9,4 km/h (2 Bft)
16.05.2011 22:43 22,0 C 12,2 C 11,8 C 71 % 0 % 1018 hPa 0,0 l/m 7,9 km/h (2 Bft)
16.05.2011 22:46 22,0 C 12,1 C 11,8 C 71 % 0 % 1018 hPa 0,0 l/m 6,1 km/h (2 Bft)
16.05.2011 22:49 22,0 C 12,2 C 11,7 C 70 % 0 % 1018 hPa 0,0 l/m 6,5 km/h (2 Bft)
16.05.2011 22:52 22,0 C 12,2 C 11,7 C 70 % 0 % 1018 hPa 0,0 l/m 8,7 km/h (2 Bft)
16.05.2011 22:55 22,0 C 12,2 C 11,7 C 71 % 0 % 1018 hPa 0,0 l/m 10,0 km/h (2 Bft)
16.05.2011 22:58 22,0 C 12,2 C 11,7 C 71 % 0 % 1018 hPa 0,0 l/m 10,5 km/h (2 Bft)
16.05.2011 23:01 22,0 C 12,2 C 11,7 C 71 % 0 % 1018 hPa 0,0 l/m 11,8 km/h (2 Bft)
16.05.2011 23:04 21,9 C 12,2 C 11,7 C 71 % 0 % 1018 hPa 0,0 l/m 11,0 km/h (2 Bft)
16.05.2011 23:07 22,0 C 12,2 C 11,7 C 71 % 0 % 1018 hPa 0,0 l/m 11,7 km/h (2 Bft)
16.05.2011 23:10 22,0 C 12,2 C 11,7 C 71 % 0 % 1018 hPa 0,0 l/m 8,1 km/h (2 Bft)
16.05.2011 23:13 21,9 C 12,2 C 11,7 C 71 % 0 % 1018 hPa 0,0 l/m 7,9 km/h (2 Bft)
16.05.2011 23:16 21,9 C 12,2 C 11,6 C 70 % 0 % 1018 hPa 0,0 l/m 7,9 km/h (2 Bft)
16.05.2011 23:19 21,9 C 12,2 C 11,6 C 70 % 0 % 1018 hPa 0,0 l/m 6,5 km/h (2 Bft)
16.05.2011 23:22 21,9 C 12,2 C 11,7 C 70 % 0 % 1018 hPa 0,0 l/m 8,5 km/h (2 Bft)
16.05.2011 23:25 21,9 C 12,2 C 11,7 C 71 % 0 % 1018 hPa 0,0 l/m 8,1 km/h (2 Bft)
16.05.2011 23:28 21,9 C 12,2 C 11,6 C 70 % 0 % 1018 hPa 0,0 l/m 10,1 km/h (2 Bft)
16.05.2011 23:31 21,9 C 12,2 C 11,6 C 70 % 0 % 1018 hPa 0,0 l/m 7,2 km/h (2 Bft)
16.05.2011 23:34 21,9 C 12,1 C 11,7 C 71 % 0 % 1018 hPa 0,0 l/m 7,6 km/h (2 Bft)
16.05.2011 23:37 21,9 C 12,1 C 11,7 C 71 % 0 % 1018 hPa 0,0 l/m 4,5 km/h (1 Bft)
16.05.2011 23:40 21,9 C 12,1 C 11,6 C 72 % 0 % 1018 hPa 0,0 l/m 6,8 km/h (2 Bft)
16.05.2011 23:43 21,9 C 12,1 C 11,6 C 72 % 0 % 1018 hPa 0,0 l/m 7,2 km/h (2 Bft)
16.05.2011 23:46 21,9 C 12,1 C 11,6 C 72 % 0 % 1018 hPa 0,0 l/m 10,0 km/h (2 Bft)
16.05.2011 23:49 21,9 C 12,1 C 11,6 C 72 % 0 % 1018 hPa 0,0 l/m 7,8 km/h (2 Bft)
16.05.2011 23:52 21,9 C 12,1 C 11,6 C 72 % 0 % 1018 hPa 0,0 l/m 4,5 km/h (1 Bft)
16.05.2011 23:55 21,9 C 12,0 C 11,6 C 73 % 0 % 1018 hPa 0,0 l/m 5,7 km/h (1 Bft)
16.05.2011 23:58 21,9 C 12,0 C 11,6 C 73 % 0 % 1018 hPa 0,0 l/m 2,2 km/h (1 Bft)
_ Min-Zeit 07:25 06:10 05:58 17:31 - 00:28 - 01:19
Minimum _ 19,2 C 6,4 C 9,5 C 54 % - 1015 hPa - 0,0 km/h (0 Bft)
_ Max-Zeit 06:49 15:58 15:55 06:22 00:01 07:10 00:10 17:16
Maximum _ 22,6 C 15,1 C 15,4 C 98 % 0 % 1018 hPa 0,3 l/m 33,2 km/h
NW (5 Bft)
Durchschnitt _ 22,0 C 10,8 C 11,6 C 80 % #0 min. 1017 hPa #1,7 l/m 10,0 km/h (2 Bft)